sensor_id;sensor_type;location;lat;lon;timestamp;P1;durP1;ratioP1;P2;durP2;ratioP2
4182;SDS011;2105;52.300;9.182;2023-07-30T00:00:57;8.90;;;6.00;;
4182;SDS011;2105;52.300;9.182;2023-07-30T00:03:24;6.23;;;5.63;;
4182;SDS011;2105;52.300;9.182;2023-07-30T00:05:51;6.77;;;6.17;;
4182;SDS011;2105;52.300;9.182;2023-07-30T00:08:19;6.33;;;5.83;;
4182;SDS011;2105;52.300;9.182;2023-07-30T00:10:46;6.07;;;5.67;;
4182;SDS011;2105;52.300;9.182;2023-07-30T00:13:14;6.73;;;6.03;;
4182;SDS011;2105;52.300;9.182;2023-07-30T00:15:41;6.73;;;6.07;;
4182;SDS011;2105;52.300;9.182;2023-07-30T00:18:08;5.97;;;5.37;;
4182;SDS011;2105;52.300;9.182;2023-07-30T00:20:35;6.40;;;5.47;;
4182;SDS011;2105;52.300;9.182;2023-07-30T00:23:02;11.03;;;5.97;;
4182;SDS011;2105;52.300;9.182;2023-07-30T00:25:29;8.73;;;6.20;;
4182;SDS011;2105;52.300;9.182;2023-07-30T00:27:56;6.10;;;5.50;;
4182;SDS011;2105;52.300;9.182;2023-07-30T00:30:25;9.03;;;6.00;;
4182;SDS011;2105;52.300;9.182;2023-07-30T00:32:52;10.70;;;5.93;;
4182;SDS011;2105;52.300;9.182;2023-07-30T00:35:19;6.50;;;5.90;;
4182;SDS011;2105;52.300;9.182;2023-07-30T00:37:47;6.50;;;5.90;;
4182;SDS011;2105;52.300;9.182;2023-07-30T00:40:14;6.63;;;6.00;;
4182;SDS011;2105;52.300;9.182;2023-07-30T00:42:41;8.00;;;5.73;;
4182;SDS011;2105;52.300;9.182;2023-07-30T00:45:09;7.20;;;5.90;;
4182;SDS011;2105;52.300;9.182;2023-07-30T00:47:38;6.40;;;5.80;;
4182;SDS011;2105;52.300;9.182;2023-07-30T00:50:05;6.80;;;6.10;;
4182;SDS011;2105;52.300;9.182;2023-07-30T00:52:33;6.97;;;6.30;;
4182;SDS011;2105;52.300;9.182;2023-07-30T00:55:01;6.90;;;6.10;;
4182;SDS011;2105;52.300;9.182;2023-07-30T00:57:29;8.10;;;6.40;;
4182;SDS011;2105;52.300;9.182;2023-07-30T00:59:56;7.30;;;6.60;;
4182;SDS011;2105;52.300;9.182;2023-07-30T01:02:23;7.40;;;6.70;;
4182;SDS011;2105;52.300;9.182;2023-07-30T01:04:52;8.73;;;6.60;;
4182;SDS011;2105;52.300;9.182;2023-07-30T01:07:19;8.60;;;6.80;;
4182;SDS011;2105;52.300;9.182;2023-07-30T01:09:46;7.63;;;6.83;;
4182;SDS011;2105;52.300;9.182;2023-07-30T01:12:13;7.13;;;6.50;;
4182;SDS011;2105;52.300;9.182;2023-07-30T01:14:41;7.27;;;6.57;;
4182;SDS011;2105;52.300;9.182;2023-07-30T01:17:08;7.30;;;6.67;;
4182;SDS011;2105;52.300;9.182;2023-07-30T01:19:35;11.97;;;7.20;;
4182;SDS011;2105;52.300;9.182;2023-07-30T01:22:04;7.40;;;6.70;;
4182;SDS011;2105;52.300;9.182;2023-07-30T01:24:31;7.33;;;6.63;;
4182;SDS011;2105;52.300;9.182;2023-07-30T01:26:59;7.70;;;7.00;;
4182;SDS011;2105;52.300;9.182;2023-07-30T01:29:28;8.50;;;7.10;;
4182;SDS011;2105;52.300;9.182;2023-07-30T01:31:56;7.53;;;6.83;;
4182;SDS011;2105;52.300;9.182;2023-07-30T01:34:24;7.50;;;6.80;;
4182;SDS011;2105;52.300;9.182;2023-07-30T01:36:52;9.90;;;7.40;;
4182;SDS011;2105;52.300;9.182;2023-07-30T01:39:21;8.63;;;7.27;;
4182;SDS011;2105;52.300;9.182;2023-07-30T01:41:48;7.67;;;6.93;;
4182;SDS011;2105;52.300;9.182;2023-07-30T01:44:15;7.87;;;7.07;;
4182;SDS011;2105;52.300;9.182;2023-07-30T01:46:42;10.70;;;7.30;;
4182;SDS011;2105;52.300;9.182;2023-07-30T01:49:09;8.20;;;6.80;;
4182;SDS011;2105;52.300;9.182;2023-07-30T01:51:36;10.10;;;7.10;;
4182;SDS011;2105;52.300;9.182;2023-07-30T01:54:03;8.10;;;7.30;;
4182;SDS011;2105;52.300;9.182;2023-07-30T01:56:32;10.63;;;7.43;;
4182;SDS011;2105;52.300;9.182;2023-07-30T01:58:59;9.00;;;7.83;;
4182;SDS011;2105;52.300;9.182;2023-07-30T02:01:26;10.10;;;7.77;;
4182;SDS011;2105;52.300;9.182;2023-07-30T02:03:53;9.40;;;7.83;;
4182;SDS011;2105;52.300;9.182;2023-07-30T02:06:20;8.23;;;7.47;;
4182;SDS011;2105;52.300;9.182;2023-07-30T02:08:47;8.53;;;7.70;;
4182;SDS011;2105;52.300;9.182;2023-07-30T02:11:14;8.87;;;8.00;;
4182;SDS011;2105;52.300;9.182;2023-07-30T02:13:42;10.10;;;8.20;;
4182;SDS011;2105;52.300;9.182;2023-07-30T02:16:09;10.03;;;8.27;;
4182;SDS011;2105;52.300;9.182;2023-07-30T02:18:36;11.50;;;8.57;;
4182;SDS011;2105;52.300;9.182;2023-07-30T02:21:03;15.33;;;9.07;;
4182;SDS011;2105;52.300;9.182;2023-07-30T02:23:30;9.03;;;8.30;;
4182;SDS011;2105;52.300;9.182;2023-07-30T02:25:57;11.07;;;9.30;;
4182;SDS011;2105;52.300;9.182;2023-07-30T02:28:25;10.93;;;8.77;;
4182;SDS011;2105;52.300;9.182;2023-07-30T02:30:53;9.33;;;8.50;;
4182;SDS011;2105;52.300;9.182;2023-07-30T02:33:20;9.60;;;8.20;;
4182;SDS011;2105;52.300;9.182;2023-07-30T02:35:47;15.87;;;8.90;;
4182;SDS011;2105;52.300;9.182;2023-07-30T02:38:14;10.50;;;9.40;;
4182;SDS011;2105;52.300;9.182;2023-07-30T02:40:41;11.43;;;8.50;;
4182;SDS011;2105;52.300;9.182;2023-07-30T02:43:08;13.67;;;8.93;;
4182;SDS011;2105;52.300;9.182;2023-07-30T02:45:35;9.10;;;8.20;;
4182;SDS011;2105;52.300;9.182;2023-07-30T02:48:04;9.63;;;8.23;;
4182;SDS011;2105;52.300;9.182;2023-07-30T02:50:31;12.77;;;8.67;;
4182;SDS011;2105;52.300;9.182;2023-07-30T02:52:58;10.37;;;8.43;;
4182;SDS011;2105;52.300;9.182;2023-07-30T02:55:25;9.73;;;8.43;;
4182;SDS011;2105;52.300;9.182;2023-07-30T02:57:52;9.30;;;8.37;;
4182;SDS011;2105;52.300;9.182;2023-07-30T03:00:19;10.43;;;7.77;;
4182;SDS011;2105;52.300;9.182;2023-07-30T03:02:46;13.03;;;8.17;;
4182;SDS011;2105;52.300;9.182;2023-07-30T03:05:15;14.50;;;7.70;;
4182;SDS011;2105;52.300;9.182;2023-07-30T03:07:42;21.17;;;8.80;;
4182;SDS011;2105;52.300;9.182;2023-07-30T03:10:09;9.90;;;7.70;;
4182;SDS011;2105;52.300;9.182;2023-07-30T03:12:36;13.20;;;8.23;;
4182;SDS011;2105;52.300;9.182;2023-07-30T03:15:04;9.73;;;7.80;;
4182;SDS011;2105;52.300;9.182;2023-07-30T03:17:31;12.77;;;7.60;;
4182;SDS011;2105;52.300;9.182;2023-07-30T03:19:58;9.00;;;7.03;;
4182;SDS011;2105;52.300;9.182;2023-07-30T03:22:26;13.67;;;7.33;;
4182;SDS011;2105;52.300;9.182;2023-07-30T03:24:53;12.97;;;7.20;;
4182;SDS011;2105;52.300;9.182;2023-07-30T03:27:21;10.17;;;7.43;;
4182;SDS011;2105;52.300;9.182;2023-07-30T03:29:48;12.73;;;8.10;;
4182;SDS011;2105;52.300;9.182;2023-07-30T03:32:15;14.77;;;7.70;;
4182;SDS011;2105;52.300;9.182;2023-07-30T03:34:42;14.07;;;8.30;;
4182;SDS011;2105;52.300;9.182;2023-07-30T03:37:09;9.30;;;7.57;;
4182;SDS011;2105;52.300;9.182;2023-07-30T03:39:37;8.73;;;7.43;;
4182;SDS011;2105;52.300;9.182;2023-07-30T03:42:04;10.97;;;7.57;;
4182;SDS011;2105;52.300;9.182;2023-07-30T03:44:31;10.40;;;7.10;;
4182;SDS011;2105;52.300;9.182;2023-07-30T03:46:58;10.00;;;7.23;;
4182;SDS011;2105;52.300;9.182;2023-07-30T03:49:26;8.40;;;7.60;;
4182;SDS011;2105;52.300;9.182;2023-07-30T03:51:53;11.10;;;7.90;;
4182;SDS011;2105;52.300;9.182;2023-07-30T03:54:20;17.70;;;8.70;;
4182;SDS011;2105;52.300;9.182;2023-07-30T03:56:48;11.67;;;8.30;;
4182;SDS011;2105;52.300;9.182;2023-07-30T03:59:15;14.37;;;8.70;;
4182;SDS011;2105;52.300;9.182;2023-07-30T04:01:42;11.07;;;8.13;;
4182;SDS011;2105;52.300;9.182;2023-07-30T04:04:09;11.53;;;7.30;;
4182;SDS011;2105;52.300;9.182;2023-07-30T04:06:36;15.07;;;8.53;;
4182;SDS011;2105;52.300;9.182;2023-07-30T04:09:03;11.50;;;8.37;;
4182;SDS011;2105;52.300;9.182;2023-07-30T04:11:30;17.87;;;8.90;;
4182;SDS011;2105;52.300;9.182;2023-07-30T04:13:59;11.67;;;8.50;;
4182;SDS011;2105;52.300;9.182;2023-07-30T04:18:54;15.60;;;9.20;;
4182;SDS011;2105;52.300;9.182;2023-07-30T04:21:21;13.50;;;9.80;;
4182;SDS011;2105;52.300;9.182;2023-07-30T04:23:48;14.40;;;8.97;;
4182;SDS011;2105;52.300;9.182;2023-07-30T04:26:16;12.90;;;9.10;;
4182;SDS011;2105;52.300;9.182;2023-07-30T04:28:43;18.80;;;8.97;;
4182;SDS011;2105;52.300;9.182;2023-07-30T04:31:11;14.33;;;9.30;;
4182;SDS011;2105;52.300;9.182;2023-07-30T04:33:38;10.57;;;9.03;;
4182;SDS011;2105;52.300;9.182;2023-07-30T04:36:05;10.53;;;8.80;;
4182;SDS011;2105;52.300;9.182;2023-07-30T04:38:33;21.47;;;9.67;;
4182;SDS011;2105;52.300;9.182;2023-07-30T04:41:01;15.60;;;9.00;;
4182;SDS011;2105;52.300;9.182;2023-07-30T04:43:28;10.40;;;8.67;;
4182;SDS011;2105;52.300;9.182;2023-07-30T04:45:55;16.50;;;9.13;;
4182;SDS011;2105;52.300;9.182;2023-07-30T04:48:24;10.20;;;8.30;;
4182;SDS011;2105;52.300;9.182;2023-07-30T04:50:51;14.53;;;9.27;;
4182;SDS011;2105;52.300;9.182;2023-07-30T04:53:18;11.53;;;8.83;;
4182;SDS011;2105;52.300;9.182;2023-07-30T04:55:45;9.77;;;7.97;;
4182;SDS011;2105;52.300;9.182;2023-07-30T04:58:12;10.10;;;8.33;;
4182;SDS011;2105;52.300;9.182;2023-07-30T05:00:39;12.30;;;8.43;;
4182;SDS011;2105;52.300;9.182;2023-07-30T05:03:06;14.57;;;8.40;;
4182;SDS011;2105;52.300;9.182;2023-07-30T05:05:36;15.43;;;8.87;;
4182;SDS011;2105;52.300;9.182;2023-07-30T05:08:03;13.57;;;8.87;;
4182;SDS011;2105;52.300;9.182;2023-07-30T05:10:30;12.33;;;8.80;;
4182;SDS011;2105;52.300;9.182;2023-07-30T05:12:57;14.60;;;8.20;;
4182;SDS011;2105;52.300;9.182;2023-07-30T05:15:25;10.13;;;8.33;;
4182;SDS011;2105;52.300;9.182;2023-07-30T05:17:52;12.90;;;9.17;;
4182;SDS011;2105;52.300;9.182;2023-07-30T05:20:19;11.67;;;8.67;;
4182;SDS011;2105;52.300;9.182;2023-07-30T05:22:47;14.53;;;9.80;;
4182;SDS011;2105;52.300;9.182;2023-07-30T05:25:15;22.70;;;9.70;;
4182;SDS011;2105;52.300;9.182;2023-07-30T05:27:42;10.73;;;9.53;;
4182;SDS011;2105;52.300;9.182;2023-07-30T05:30:09;14.00;;;10.43;;
4182;SDS011;2105;52.300;9.182;2023-07-30T05:32:36;11.73;;;9.57;;
4182;SDS011;2105;52.300;9.182;2023-07-30T05:35:03;16.97;;;10.63;;
4182;SDS011;2105;52.300;9.182;2023-07-30T05:37:31;14.93;;;11.03;;
4182;SDS011;2105;52.300;9.182;2023-07-30T05:39:59;11.63;;;10.60;;
4182;SDS011;2105;52.300;9.182;2023-07-30T05:42:26;20.47;;;10.50;;
4182;SDS011;2105;52.300;9.182;2023-07-30T05:44:53;14.37;;;10.83;;
4182;SDS011;2105;52.300;9.182;2023-07-30T05:47:20;11.03;;;9.97;;
4182;SDS011;2105;52.300;9.182;2023-07-30T05:49:47;12.83;;;11.50;;
4182;SDS011;2105;52.300;9.182;2023-07-30T05:52:14;13.83;;;12.37;;
4182;SDS011;2105;52.300;9.182;2023-07-30T05:54:41;11.67;;;10.47;;
4182;SDS011;2105;52.300;9.182;2023-07-30T05:57:10;13.40;;;10.00;;
4182;SDS011;2105;52.300;9.182;2023-07-30T05:59:37;17.53;;;10.90;;
4182;SDS011;2105;52.300;9.182;2023-07-30T06:02:04;14.57;;;13.20;;
4182;SDS011;2105;52.300;9.182;2023-07-30T06:04:31;13.60;;;11.57;;
4182;SDS011;2105;52.300;9.182;2023-07-30T06:06:59;12.90;;;10.47;;
4182;SDS011;2105;52.300;9.182;2023-07-30T06:09:26;15.40;;;13.50;;
4182;SDS011;2105;52.300;9.182;2023-07-30T06:11:54;14.87;;;13.47;;
4182;SDS011;2105;52.300;9.182;2023-07-30T06:14:23;15.53;;;13.80;;
4182;SDS011;2105;52.300;9.182;2023-07-30T06:16:50;14.80;;;13.17;;
4182;SDS011;2105;52.300;9.182;2023-07-30T06:19:17;16.87;;;12.80;;
4182;SDS011;2105;52.300;9.182;2023-07-30T06:21:45;18.97;;;13.83;;
4182;SDS011;2105;52.300;9.182;2023-07-30T06:24:12;15.13;;;13.53;;
4182;SDS011;2105;52.300;9.182;2023-07-30T06:26:39;15.30;;;12.70;;
4182;SDS011;2105;52.300;9.182;2023-07-30T06:29:06;18.53;;;13.40;;
4182;SDS011;2105;52.300;9.182;2023-07-30T06:31:35;15.43;;;13.23;;
4182;SDS011;2105;52.300;9.182;2023-07-30T06:34:02;13.90;;;12.40;;
4182;SDS011;2105;52.300;9.182;2023-07-30T06:36:29;15.37;;;13.57;;
4182;SDS011;2105;52.300;9.182;2023-07-30T06:38:56;18.93;;;12.67;;
4182;SDS011;2105;52.300;9.182;2023-07-30T06:41:23;20.30;;;13.00;;
4182;SDS011;2105;52.300;9.182;2023-07-30T06:43:50;16.50;;;14.57;;
4182;SDS011;2105;52.300;9.182;2023-07-30T06:46:17;16.73;;;14.13;;
4182;SDS011;2105;52.300;9.182;2023-07-30T06:48:45;16.57;;;14.87;;
4182;SDS011;2105;52.300;9.182;2023-07-30T06:51:12;13.40;;;12.10;;
4182;SDS011;2105;52.300;9.182;2023-07-30T06:53:39;19.87;;;14.10;;
4182;SDS011;2105;52.300;9.182;2023-07-30T06:56:06;14.50;;;12.53;;
4182;SDS011;2105;52.300;9.182;2023-07-30T06:58:34;22.40;;;12.03;;
4182;SDS011;2105;52.300;9.182;2023-07-30T07:01:01;13.33;;;12.00;;
4182;SDS011;2105;52.300;9.182;2023-07-30T07:03:28;15.00;;;12.00;;
4182;SDS011;2105;52.300;9.182;2023-07-30T07:05:56;16.20;;;11.67;;
4182;SDS011;2105;52.300;9.182;2023-07-30T07:08:23;14.37;;;11.30;;
4182;SDS011;2105;52.300;9.182;2023-07-30T07:10:52;17.30;;;12.00;;
4182;SDS011;2105;52.300;9.182;2023-07-30T07:13:19;13.63;;;11.20;;
4182;SDS011;2105;52.300;9.182;2023-07-30T07:15:46;12.63;;;11.33;;
4182;SDS011;2105;52.300;9.182;2023-07-30T07:18:13;15.20;;;13.40;;
4182;SDS011;2105;52.300;9.182;2023-07-30T07:20:40;14.43;;;12.90;;
4182;SDS011;2105;52.300;9.182;2023-07-30T07:23:08;16.87;;;15.23;;
4182;SDS011;2105;52.300;9.182;2023-07-30T07:25:36;15.83;;;13.30;;
4182;SDS011;2105;52.300;9.182;2023-07-30T07:28:03;17.33;;;12.90;;
4182;SDS011;2105;52.300;9.182;2023-07-30T07:30:30;19.53;;;17.70;;
4182;SDS011;2105;52.300;9.182;2023-07-30T07:32:57;21.70;;;18.60;;
4182;SDS011;2105;52.300;9.182;2023-07-30T07:35:24;24.20;;;18.00;;
4182;SDS011;2105;52.300;9.182;2023-07-30T07:37:51;16.00;;;14.50;;
4182;SDS011;2105;52.300;9.182;2023-07-30T07:40:20;22.43;;;17.43;;
4182;SDS011;2105;52.300;9.182;2023-07-30T07:42:47;16.07;;;14.37;;
4182;SDS011;2105;52.300;9.182;2023-07-30T07:45:14;21.33;;;16.30;;
4182;SDS011;2105;52.300;9.182;2023-07-30T07:47:41;17.03;;;15.27;;
4182;SDS011;2105;52.300;9.182;2023-07-30T07:50:08;16.70;;;15.00;;
4182;SDS011;2105;52.300;9.182;2023-07-30T07:52:35;18.20;;;16.30;;
4182;SDS011;2105;52.300;9.182;2023-07-30T07:55:03;17.27;;;15.57;;
4182;SDS011;2105;52.300;9.182;2023-07-30T07:57:31;19.03;;;16.83;;
4182;SDS011;2105;52.300;9.182;2023-07-30T07:59:58;21.20;;;17.60;;
4182;SDS011;2105;52.300;9.182;2023-07-30T08:02:26;18.77;;;17.03;;
4182;SDS011;2105;52.300;9.182;2023-07-30T08:04:53;22.23;;;17.40;;
4182;SDS011;2105;52.300;9.182;2023-07-30T08:07:20;20.93;;;17.93;;
4182;SDS011;2105;52.300;9.182;2023-07-30T08:09:47;19.80;;;17.37;;
4182;SDS011;2105;52.300;9.182;2023-07-30T08:12:16;19.93;;;16.63;;
4182;SDS011;2105;52.300;9.182;2023-07-30T08:14:44;17.90;;;16.47;;
4182;SDS011;2105;52.300;9.182;2023-07-30T08:17:12;23.47;;;15.40;;
4182;SDS011;2105;52.300;9.182;2023-07-30T08:19:39;17.73;;;15.97;;
4182;SDS011;2105;52.300;9.182;2023-07-30T08:22:06;18.70;;;16.50;;
4182;SDS011;2105;52.300;9.182;2023-07-30T08:24:33;19.30;;;17.50;;
4182;SDS011;2105;52.300;9.182;2023-07-30T08:27:00;30.00;;;18.97;;
4182;SDS011;2105;52.300;9.182;2023-07-30T08:29:27;29.80;;;20.10;;
4182;SDS011;2105;52.300;9.182;2023-07-30T08:31:55;21.37;;;18.90;;
4182;SDS011;2105;52.300;9.182;2023-07-30T08:34:22;19.23;;;17.30;;
4182;SDS011;2105;52.300;9.182;2023-07-30T08:36:49;22.83;;;17.70;;
4182;SDS011;2105;52.300;9.182;2023-07-30T08:39:17;21.13;;;18.90;;
4182;SDS011;2105;52.300;9.182;2023-07-30T08:41:44;22.27;;;19.17;;
4182;SDS011;2105;52.300;9.182;2023-07-30T08:44:11;24.23;;;21.70;;
4182;SDS011;2105;52.300;9.182;2023-07-30T08:46:39;21.83;;;19.20;;
4182;SDS011;2105;52.300;9.182;2023-07-30T08:49:07;28.03;;;23.17;;
4182;SDS011;2105;52.300;9.182;2023-07-30T08:51:35;24.47;;;21.80;;
4182;SDS011;2105;52.300;9.182;2023-07-30T08:54:03;22.57;;;20.10;;
4182;SDS011;2105;52.300;9.182;2023-07-30T08:56:31;23.10;;;20.27;;
4182;SDS011;2105;52.300;9.182;2023-07-30T08:58:58;23.13;;;20.40;;
4182;SDS011;2105;52.300;9.182;2023-07-30T09:01:26;23.40;;;21.27;;
4182;SDS011;2105;52.300;9.182;2023-07-30T09:03:56;22.77;;;20.67;;
4182;SDS011;2105;52.300;9.182;2023-07-30T09:06:27;28.90;;;21.50;;
4182;SDS011;2105;52.300;9.182;2023-07-30T09:08:54;22.20;;;20.07;;
4182;SDS011;2105;52.300;9.182;2023-07-30T09:11:21;24.30;;;20.40;;
4182;SDS011;2105;52.300;9.182;2023-07-30T09:13:52;28.20;;;19.57;;
4182;SDS011;2105;52.300;9.182;2023-07-30T09:16:23;21.00;;;18.93;;
4182;SDS011;2105;52.300;9.182;2023-07-30T09:18:51;23.27;;;19.07;;
4182;SDS011;2105;52.300;9.182;2023-07-30T09:21:19;29.30;;;20.77;;
4182;SDS011;2105;52.300;9.182;2023-07-30T09:23:48;23.63;;;21.20;;
4182;SDS011;2105;52.300;9.182;2023-07-30T09:26:15;22.67;;;19.27;;
4182;SDS011;2105;52.300;9.182;2023-07-30T09:28:42;22.67;;;20.17;;
4182;SDS011;2105;52.300;9.182;2023-07-30T09:31:09;22.87;;;19.30;;
4182;SDS011;2105;52.300;9.182;2023-07-30T09:33:40;24.07;;;21.20;;
4182;SDS011;2105;52.300;9.182;2023-07-30T09:36:07;31.70;;;20.70;;
4182;SDS011;2105;52.300;9.182;2023-07-30T09:38:38;23.80;;;20.57;;
4182;SDS011;2105;52.300;9.182;2023-07-30T09:41:06;24.30;;;19.63;;
4182;SDS011;2105;52.300;9.182;2023-07-30T09:43:35;20.80;;;18.60;;
4182;SDS011;2105;52.300;9.182;2023-07-30T09:46:02;24.17;;;18.50;;
4182;SDS011;2105;52.300;9.182;2023-07-30T09:48:30;22.93;;;19.20;;
4182;SDS011;2105;52.300;9.182;2023-07-30T09:50:58;22.43;;;19.97;;
4182;SDS011;2105;52.300;9.182;2023-07-30T09:53:27;24.47;;;21.33;;
4182;SDS011;2105;52.300;9.182;2023-07-30T09:55:54;29.27;;;22.07;;
4182;SDS011;2105;52.300;9.182;2023-07-30T09:58:23;37.33;;;23.33;;
4182;SDS011;2105;52.300;9.182;2023-07-30T10:00:50;25.93;;;23.23;;
4182;SDS011;2105;52.300;9.182;2023-07-30T10:03:18;24.10;;;21.50;;
4182;SDS011;2105;52.300;9.182;2023-07-30T10:05:46;25.43;;;22.27;;
4182;SDS011;2105;52.300;9.182;2023-07-30T10:08:15;29.40;;;22.40;;
4182;SDS011;2105;52.300;9.182;2023-07-30T10:10:43;27.93;;;22.50;;
4182;SDS011;2105;52.300;9.182;2023-07-30T10:13:11;26.87;;;21.43;;
4182;SDS011;2105;52.300;9.182;2023-07-30T10:18:08;24.07;;;21.57;;
4182;SDS011;2105;52.300;9.182;2023-07-30T10:20:35;31.00;;;23.53;;
4182;SDS011;2105;52.300;9.182;2023-07-30T10:23:04;25.37;;;21.30;;
4182;SDS011;2105;52.300;9.182;2023-07-30T10:25:41;26.07;;;22.90;;
4182;SDS011;2105;52.300;9.182;2023-07-30T10:28:10;27.53;;;22.13;;
4182;SDS011;2105;52.300;9.182;2023-07-30T10:30:54;33.60;;;24.17;;
4182;SDS011;2105;52.300;9.182;2023-07-30T10:33:23;31.03;;;23.37;;
4182;SDS011;2105;52.300;9.182;2023-07-30T10:35:53;29.40;;;22.40;;
4182;SDS011;2105;52.300;9.182;2023-07-30T10:38:21;29.00;;;22.80;;
4182;SDS011;2105;52.300;9.182;2023-07-30T10:40:59;27.87;;;22.53;;
4182;SDS011;2105;52.300;9.182;2023-07-30T10:43:27;29.00;;;21.60;;
4182;SDS011;2105;52.300;9.182;2023-07-30T10:45:54;27.07;;;18.23;;
4182;SDS011;2105;52.300;9.182;2023-07-30T10:48:30;26.10;;;18.60;;
4182;SDS011;2105;52.300;9.182;2023-07-30T10:50:58;27.93;;;18.30;;
4182;SDS011;2105;52.300;9.182;2023-07-30T10:53:25;25.60;;;18.03;;
4182;SDS011;2105;52.300;9.182;2023-07-30T10:55:52;27.87;;;20.53;;
4182;SDS011;2105;52.300;9.182;2023-07-30T10:58:24;29.27;;;20.53;;
4182;SDS011;2105;52.300;9.182;2023-07-30T11:00:51;31.33;;;23.40;;
4182;SDS011;2105;52.300;9.182;2023-07-30T11:03:18;28.73;;;22.73;;
4182;SDS011;2105;52.300;9.182;2023-07-30T11:05:47;30.37;;;25.00;;
4182;SDS011;2105;52.300;9.182;2023-07-30T11:08:14;26.83;;;23.50;;
4182;SDS011;2105;52.300;9.182;2023-07-30T11:10:42;27.73;;;21.37;;
4182;SDS011;2105;52.300;9.182;2023-07-30T11:13:09;23.80;;;20.90;;
4182;SDS011;2105;52.300;9.182;2023-07-30T11:15:43;25.33;;;19.07;;
4182;SDS011;2105;52.300;9.182;2023-07-30T11:18:11;20.63;;;18.10;;
4182;SDS011;2105;52.300;9.182;2023-07-30T11:20:38;20.93;;;18.30;;
4182;SDS011;2105;52.300;9.182;2023-07-30T11:23:19;23.37;;;18.83;;
4182;SDS011;2105;52.300;9.182;2023-07-30T11:25:47;23.37;;;20.50;;
4182;SDS011;2105;52.300;9.182;2023-07-30T11:28:15;26.33;;;24.10;;
4182;SDS011;2105;52.300;9.182;2023-07-30T11:30:42;21.63;;;19.43;;
4182;SDS011;2105;52.300;9.182;2023-07-30T11:33:14;27.87;;;20.37;;
4182;SDS011;2105;52.300;9.182;2023-07-30T11:35:41;27.27;;;21.30;;
4182;SDS011;2105;52.300;9.182;2023-07-30T11:38:08;24.60;;;22.13;;
4182;SDS011;2105;52.300;9.182;2023-07-30T11:40:37;22.63;;;20.53;;
4182;SDS011;2105;52.300;9.182;2023-07-30T11:43:04;21.40;;;19.10;;
4182;SDS011;2105;52.300;9.182;2023-07-30T11:45:31;27.10;;;21.47;;
4182;SDS011;2105;52.300;9.182;2023-07-30T11:48:05;25.00;;;19.27;;
4182;SDS011;2105;52.300;9.182;2023-07-30T11:50:41;22.60;;;20.07;;
4182;SDS011;2105;52.300;9.182;2023-07-30T11:53:09;20.27;;;18.17;;
4182;SDS011;2105;52.300;9.182;2023-07-30T11:55:38;23.87;;;18.30;;
4182;SDS011;2105;52.300;9.182;2023-07-30T11:58:05;20.00;;;17.87;;
4182;SDS011;2105;52.300;9.182;2023-07-30T12:00:32;22.43;;;20.27;;
4182;SDS011;2105;52.300;9.182;2023-07-30T12:03:01;22.63;;;20.00;;
4182;SDS011;2105;52.300;9.182;2023-07-30T12:05:32;22.97;;;19.33;;
4182;SDS011;2105;52.300;9.182;2023-07-30T12:08:00;19.47;;;17.60;;
4182;SDS011;2105;52.300;9.182;2023-07-30T12:10:28;25.17;;;19.30;;
4182;SDS011;2105;52.300;9.182;2023-07-30T12:13:12;20.63;;;18.67;;
4182;SDS011;2105;52.300;9.182;2023-07-30T12:15:39;21.33;;;18.60;;
4182;SDS011;2105;52.300;9.182;2023-07-30T12:18:06;20.90;;;18.00;;
4182;SDS011;2105;52.300;9.182;2023-07-30T12:20:33;20.67;;;18.57;;
4182;SDS011;2105;52.300;9.182;2023-07-30T12:23:01;23.43;;;18.40;;
4182;SDS011;2105;52.300;9.182;2023-07-30T12:25:28;22.30;;;19.97;;
4182;SDS011;2105;52.300;9.182;2023-07-30T12:27:55;21.97;;;19.63;;
4182;SDS011;2105;52.300;9.182;2023-07-30T12:30:23;23.80;;;21.30;;
4182;SDS011;2105;52.300;9.182;2023-07-30T12:32:51;21.40;;;19.40;;
4182;SDS011;2105;52.300;9.182;2023-07-30T12:35:18;22.77;;;20.67;;
4182;SDS011;2105;52.300;9.182;2023-07-30T12:37:45;23.27;;;21.07;;
4182;SDS011;2105;52.300;9.182;2023-07-30T12:40:12;26.43;;;21.07;;
4182;SDS011;2105;52.300;9.182;2023-07-30T12:42:39;22.07;;;19.90;;
4182;SDS011;2105;52.300;9.182;2023-07-30T12:45:07;22.80;;;20.53;;
4182;SDS011;2105;52.300;9.182;2023-07-30T12:47:35;22.90;;;19.50;;
4182;SDS011;2105;52.300;9.182;2023-07-30T12:50:03;21.83;;;20.00;;
4182;SDS011;2105;52.300;9.182;2023-07-30T12:52:30;20.93;;;19.13;;
4182;SDS011;2105;52.300;9.182;2023-07-30T12:54:57;21.50;;;18.77;;
4182;SDS011;2105;52.300;9.182;2023-07-30T12:57:24;25.30;;;19.50;;
4182;SDS011;2105;52.300;9.182;2023-07-30T12:59:51;20.13;;;18.33;;
4182;SDS011;2105;52.300;9.182;2023-07-30T13:02:18;20.53;;;18.60;;
4182;SDS011;2105;52.300;9.182;2023-07-30T13:04:47;20.77;;;18.70;;
4182;SDS011;2105;52.300;9.182;2023-07-30T13:07:14;20.33;;;18.37;;
4182;SDS011;2105;52.300;9.182;2023-07-30T13:09:41;20.70;;;18.90;;
4182;SDS011;2105;52.300;9.182;2023-07-30T13:12:08;20.50;;;18.60;;
4182;SDS011;2105;52.300;9.182;2023-07-30T13:14:35;19.63;;;17.83;;
4182;SDS011;2105;52.300;9.182;2023-07-30T13:17:02;20.13;;;18.37;;
4182;SDS011;2105;52.300;9.182;2023-07-30T13:19:29;21.70;;;18.97;;
4182;SDS011;2105;52.300;9.182;2023-07-30T13:21:59;18.53;;;16.80;;
4182;SDS011;2105;52.300;9.182;2023-07-30T13:24:26;19.87;;;18.07;;
4182;SDS011;2105;52.300;9.182;2023-07-30T13:26:54;19.20;;;17.60;;
4182;SDS011;2105;52.300;9.182;2023-07-30T13:29:21;19.10;;;17.27;;
4182;SDS011;2105;52.300;9.182;2023-07-30T13:31:48;20.00;;;16.17;;
4182;SDS011;2105;52.300;9.182;2023-07-30T13:34:16;19.87;;;17.77;;
4182;SDS011;2105;52.300;9.182;2023-07-30T13:36:43;19.13;;;17.17;;
4182;SDS011;2105;52.300;9.182;2023-07-30T13:39:11;18.73;;;17.00;;
4182;SDS011;2105;52.300;9.182;2023-07-30T13:41:38;17.40;;;16.00;;
4182;SDS011;2105;52.300;9.182;2023-07-30T13:44:05;20.00;;;17.30;;
4182;SDS011;2105;52.300;9.182;2023-07-30T13:46:32;18.13;;;16.43;;
4182;SDS011;2105;52.300;9.182;2023-07-30T13:48:59;17.23;;;15.70;;
4182;SDS011;2105;52.300;9.182;2023-07-30T13:51:26;18.13;;;16.00;;
4182;SDS011;2105;52.300;9.182;2023-07-30T13:53:57;17.53;;;16.23;;
4182;SDS011;2105;52.300;9.182;2023-07-30T13:56:26;18.23;;;16.47;;
4182;SDS011;2105;52.300;9.182;2023-07-30T13:58:53;17.77;;;15.90;;
4182;SDS011;2105;52.300;9.182;2023-07-30T14:01:20;17.43;;;16.13;;
4182;SDS011;2105;52.300;9.182;2023-07-30T14:03:47;18.10;;;16.20;;
4182;SDS011;2105;52.300;9.182;2023-07-30T14:06:14;19.13;;;17.07;;
4182;SDS011;2105;52.300;9.182;2023-07-30T14:08:41;21.87;;;17.00;;
4182;SDS011;2105;52.300;9.182;2023-07-30T14:11:08;18.73;;;17.13;;
4182;SDS011;2105;52.300;9.182;2023-07-30T14:13:36;18.67;;;17.17;;
4182;SDS011;2105;52.300;9.182;2023-07-30T14:16:03;19.27;;;17.10;;
4182;SDS011;2105;52.300;9.182;2023-07-30T14:18:30;18.67;;;16.67;;
4182;SDS011;2105;52.300;9.182;2023-07-30T14:20:58;22.63;;;16.97;;
4182;SDS011;2105;52.300;9.182;2023-07-30T14:23:25;18.90;;;17.00;;
4182;SDS011;2105;52.300;9.182;2023-07-30T14:25:52;18.60;;;16.73;;
4182;SDS011;2105;52.300;9.182;2023-07-30T14:28:19;19.27;;;17.37;;
4182;SDS011;2105;52.300;9.182;2023-07-30T14:30:47;18.03;;;16.30;;
4182;SDS011;2105;52.300;9.182;2023-07-30T14:33:14;18.17;;;16.53;;
4182;SDS011;2105;52.300;9.182;2023-07-30T14:35:41;18.07;;;16.30;;
4182;SDS011;2105;52.300;9.182;2023-07-30T14:38:08;18.33;;;16.73;;
4182;SDS011;2105;52.300;9.182;2023-07-30T14:40:35;18.47;;;16.57;;
4182;SDS011;2105;52.300;9.182;2023-07-30T14:43:02;17.50;;;16.10;;
4182;SDS011;2105;52.300;9.182;2023-07-30T14:45:29;18.23;;;16.70;;
4182;SDS011;2105;52.300;9.182;2023-07-30T14:47:58;18.60;;;17.20;;
4182;SDS011;2105;52.300;9.182;2023-07-30T14:50:25;18.70;;;17.00;;
4182;SDS011;2105;52.300;9.182;2023-07-30T14:52:54;18.90;;;17.10;;
4182;SDS011;2105;52.300;9.182;2023-07-30T14:55:21;18.40;;;16.70;;
4182;SDS011;2105;52.300;9.182;2023-07-30T14:57:48;18.50;;;17.00;;
4182;SDS011;2105;52.300;9.182;2023-07-30T15:00:15;17.83;;;16.40;;
4182;SDS011;2105;52.300;9.182;2023-07-30T15:02:42;18.40;;;16.60;;